sensor_id;sensor_type;location;lat;lon;timestamp;P1;durP1;ratioP1;P2;durP2;ratioP2
55031;SDS011;40928;51.076;7.950;2023-02-15T00:01:25;15.13;;;6.53;;
55031;SDS011;40928;51.076;7.950;2023-02-15T00:03:52;13.95;;;5.68;;
55031;SDS011;40928;51.076;7.950;2023-02-15T00:06:18;16.33;;;6.47;;
55031;SDS011;40928;51.076;7.950;2023-02-15T00:08:44;14.20;;;6.70;;
55031;SDS011;40928;51.076;7.950;2023-02-15T00:11:14;15.00;;;7.00;;
55031;SDS011;40928;51.076;7.950;2023-02-15T00:13:41;16.95;;;7.00;;
55031;SDS011;40928;51.076;7.950;2023-02-15T00:16:08;16.13;;;6.70;;
55031;SDS011;40928;51.076;7.950;2023-02-15T00:18:36;17.90;;;6.82;;
55031;SDS011;40928;51.076;7.950;2023-02-15T00:21:06;12.18;;;6.53;;
55031;SDS011;40928;51.076;7.950;2023-02-15T00:23:35;15.43;;;6.00;;
55031;SDS011;40928;51.076;7.950;2023-02-15T00:26:11;14.48;;;6.53;;
55031;SDS011;40928;51.076;7.950;2023-02-15T00:28:41;20.33;;;6.75;;
55031;SDS011;40928;51.076;7.950;2023-02-15T00:31:07;14.15;;;6.13;;
55031;SDS011;40928;51.076;7.950;2023-02-15T00:33:35;15.13;;;6.40;;
55031;SDS011;40928;51.076;7.950;2023-02-15T00:36:02;14.68;;;6.55;;
55031;SDS011;40928;51.076;7.950;2023-02-15T00:38:28;14.27;;;6.05;;
55031;SDS011;40928;51.076;7.950;2023-02-15T00:40:54;16.83;;;7.15;;
55031;SDS011;40928;51.076;7.950;2023-02-15T00:43:21;16.58;;;6.03;;
55031;SDS011;40928;51.076;7.950;2023-02-15T00:45:47;15.68;;;6.65;;
55031;SDS011;40928;51.076;7.950;2023-02-15T00:48:12;11.40;;;5.53;;
55031;SDS011;40928;51.076;7.950;2023-02-15T00:50:38;14.38;;;5.75;;
55031;SDS011;40928;51.076;7.950;2023-02-15T00:53:04;15.40;;;6.88;;
55031;SDS011;40928;51.076;7.950;2023-02-15T00:55:30;19.13;;;6.95;;
55031;SDS011;40928;51.076;7.950;2023-02-15T00:57:55;14.80;;;5.72;;
55031;SDS011;40928;51.076;7.950;2023-02-15T01:00:21;14.43;;;6.00;;
55031;SDS011;40928;51.076;7.950;2023-02-15T01:02:47;12.45;;;6.40;;
55031;SDS011;40928;51.076;7.950;2023-02-15T01:05:13;17.75;;;6.95;;
55031;SDS011;40928;51.076;7.950;2023-02-15T01:07:39;18.67;;;6.85;;
55031;SDS011;40928;51.076;7.950;2023-02-15T01:10:05;14.23;;;6.97;;
55031;SDS011;40928;51.076;7.950;2023-02-15T01:12:32;11.40;;;5.78;;
55031;SDS011;40928;51.076;7.950;2023-02-15T01:14:58;18.40;;;6.88;;
55031;SDS011;40928;51.076;7.950;2023-02-15T01:17:24;13.05;;;5.68;;
55031;SDS011;40928;51.076;7.950;2023-02-15T01:19:49;16.50;;;7.07;;
55031;SDS011;40928;51.076;7.950;2023-02-15T01:22:18;17.20;;;6.53;;
55031;SDS011;40928;51.076;7.950;2023-02-15T01:24:44;16.67;;;7.18;;
55031;SDS011;40928;51.076;7.950;2023-02-15T01:27:09;13.73;;;6.47;;
55031;SDS011;40928;51.076;7.950;2023-02-15T01:29:35;16.25;;;6.30;;
55031;SDS011;40928;51.076;7.950;2023-02-15T01:32:00;15.88;;;6.80;;
55031;SDS011;40928;51.076;7.950;2023-02-15T01:34:26;14.38;;;7.07;;
55031;SDS011;40928;51.076;7.950;2023-02-15T01:36:52;15.68;;;6.63;;
55031;SDS011;40928;51.076;7.950;2023-02-15T01:39:17;15.00;;;7.07;;
55031;SDS011;40928;51.076;7.950;2023-02-15T01:41:43;16.23;;;6.65;;
55031;SDS011;40928;51.076;7.950;2023-02-15T01:47:09;14.85;;;7.35;;
55031;SDS011;40928;51.076;7.950;2023-02-15T01:49:36;15.98;;;6.43;;
55031;SDS011;40928;51.076;7.950;2023-02-15T01:52:06;17.05;;;6.03;;
55031;SDS011;40928;51.076;7.950;2023-02-15T01:54:34;21.13;;;6.90;;
55031;SDS011;40928;51.076;7.950;2023-02-15T01:57:04;17.70;;;7.55;;
55031;SDS011;40928;51.076;7.950;2023-02-15T01:59:34;15.70;;;6.70;;
55031;SDS011;40928;51.076;7.950;2023-02-15T02:02:02;14.60;;;6.45;;
55031;SDS011;40928;51.076;7.950;2023-02-15T02:04:31;16.13;;;7.32;;
55031;SDS011;40928;51.076;7.950;2023-02-15T02:07:05;14.95;;;6.30;;
55031;SDS011;40928;51.076;7.950;2023-02-15T02:09:32;12.77;;;7.15;;
55031;SDS011;40928;51.076;7.950;2023-02-15T02:11:57;17.95;;;7.05;;
55031;SDS011;40928;51.076;7.950;2023-02-15T02:14:23;14.50;;;7.93;;
55031;SDS011;40928;51.076;7.950;2023-02-15T02:25:58;16.38;;;6.10;;
55031;SDS011;40928;51.076;7.950;2023-02-15T02:34:36;14.18;;;6.72;;
55031;SDS011;40928;51.076;7.950;2023-02-15T02:42:29;17.73;;;7.82;;
55031;SDS011;40928;51.076;7.950;2023-02-15T02:45:00;17.08;;;6.32;;
55031;SDS011;40928;51.076;7.950;2023-02-15T02:47:29;15.00;;;6.82;;
55031;SDS011;40928;51.076;7.950;2023-02-15T02:50:00;14.57;;;6.95;;
55031;SDS011;40928;51.076;7.950;2023-02-15T02:52:46;16.50;;;6.82;;
55031;SDS011;40928;51.076;7.950;2023-02-15T02:55:18;16.40;;;7.63;;
55031;SDS011;40928;51.076;7.950;2023-02-15T03:00:18;15.63;;;6.47;;
55031;SDS011;40928;51.076;7.950;2023-02-15T03:02:46;17.25;;;7.50;;
55031;SDS011;40928;51.076;7.950;2023-02-15T03:05:16;13.57;;;6.60;;
55031;SDS011;40928;51.076;7.950;2023-02-15T03:07:47;16.50;;;6.57;;
55031;SDS011;40928;51.076;7.950;2023-02-15T03:10:16;16.27;;;6.82;;
55031;SDS011;40928;51.076;7.950;2023-02-15T03:12:43;18.08;;;7.65;;
55031;SDS011;40928;51.076;7.950;2023-02-15T03:17:44;15.50;;;7.13;;
55031;SDS011;40928;51.076;7.950;2023-02-15T03:20:18;19.27;;;6.82;;
55031;SDS011;40928;51.076;7.950;2023-02-15T03:25:33;13.45;;;6.32;;
55031;SDS011;40928;51.076;7.950;2023-02-15T03:28:08;14.55;;;6.90;;
55031;SDS011;40928;51.076;7.950;2023-02-15T03:30:39;19.83;;;7.10;;
55031;SDS011;40928;51.076;7.950;2023-02-15T03:33:07;16.23;;;6.95;;
55031;SDS011;40928;51.076;7.950;2023-02-15T03:38:51;14.30;;;5.88;;
55031;SDS011;40928;51.076;7.950;2023-02-15T03:41:26;20.40;;;6.45;;
55031;SDS011;40928;51.076;7.950;2023-02-15T03:43:58;16.38;;;5.75;;
55031;SDS011;40928;51.076;7.950;2023-02-15T03:46:31;14.55;;;5.68;;
55031;SDS011;40928;51.076;7.950;2023-02-15T03:49:02;17.63;;;6.53;;
55031;SDS011;40928;51.076;7.950;2023-02-15T03:51:33;14.05;;;6.65;;
55031;SDS011;40928;51.076;7.950;2023-02-15T03:54:06;12.85;;;5.78;;
55031;SDS011;40928;51.076;7.950;2023-02-15T03:56:33;17.92;;;6.70;;
55031;SDS011;40928;51.076;7.950;2023-02-15T03:59:01;13.13;;;6.13;;
55031;SDS011;40928;51.076;7.950;2023-02-15T04:04:26;14.43;;;6.50;;
55031;SDS011;40928;51.076;7.950;2023-02-15T04:06:57;13.30;;;6.55;;
55031;SDS011;40928;51.076;7.950;2023-02-15T04:09:22;11.45;;;5.35;;
55031;SDS011;40928;51.076;7.950;2023-02-15T04:12:06;16.02;;;6.13;;
55031;SDS011;40928;51.076;7.950;2023-02-15T04:14:32;16.88;;;6.78;;
55031;SDS011;40928;51.076;7.950;2023-02-15T04:17:16;17.45;;;6.50;;
55031;SDS011;40928;51.076;7.950;2023-02-15T04:19:41;13.77;;;6.30;;
55031;SDS011;40928;51.076;7.950;2023-02-15T04:22:25;15.35;;;6.57;;
55031;SDS011;40928;51.076;7.950;2023-02-15T04:25:09;14.30;;;6.57;;
55031;SDS011;40928;51.076;7.950;2023-02-15T04:27:38;13.20;;;6.45;;
55031;SDS011;40928;51.076;7.950;2023-02-15T04:30:05;19.08;;;6.53;;
55031;SDS011;40928;51.076;7.950;2023-02-15T04:32:31;13.05;;;5.97;;
55031;SDS011;40928;51.076;7.950;2023-02-15T04:34:57;15.80;;;5.93;;
55031;SDS011;40928;51.076;7.950;2023-02-15T04:37:23;10.85;;;5.40;;
55031;SDS011;40928;51.076;7.950;2023-02-15T04:39:48;15.57;;;6.25;;
55031;SDS011;40928;51.076;7.950;2023-02-15T04:42:15;19.08;;;6.43;;
55031;SDS011;40928;51.076;7.950;2023-02-15T04:44:41;16.65;;;6.95;;
55031;SDS011;40928;51.076;7.950;2023-02-15T04:47:06;13.57;;;6.53;;
55031;SDS011;40928;51.076;7.950;2023-02-15T04:49:32;14.02;;;5.82;;
55031;SDS011;40928;51.076;7.950;2023-02-15T04:51:57;11.50;;;5.82;;
55031;SDS011;40928;51.076;7.950;2023-02-15T04:54:23;15.63;;;6.60;;
55031;SDS011;40928;51.076;7.950;2023-02-15T04:56:48;14.15;;;6.40;;
55031;SDS011;40928;51.076;7.950;2023-02-15T04:59:14;15.63;;;6.22;;
55031;SDS011;40928;51.076;7.950;2023-02-15T05:01:40;17.33;;;7.03;;
55031;SDS011;40928;51.076;7.950;2023-02-15T05:04:05;12.20;;;5.55;;
55031;SDS011;40928;51.076;7.950;2023-02-15T05:06:31;14.70;;;6.63;;
55031;SDS011;40928;51.076;7.950;2023-02-15T05:08:57;15.30;;;6.28;;
55031;SDS011;40928;51.076;7.950;2023-02-15T05:11:24;13.63;;;6.20;;
55031;SDS011;40928;51.076;7.950;2023-02-15T05:13:50;13.77;;;6.03;;
55031;SDS011;40928;51.076;7.950;2023-02-15T05:16:16;17.15;;;6.35;;
55031;SDS011;40928;51.076;7.950;2023-02-15T05:18:42;14.18;;;6.18;;
55031;SDS011;40928;51.076;7.950;2023-02-15T05:21:07;15.40;;;6.00;;
55031;SDS011;40928;51.076;7.950;2023-02-15T05:23:33;9.93;;;5.32;;
55031;SDS011;40928;51.076;7.950;2023-02-15T05:25:59;16.00;;;6.43;;
55031;SDS011;40928;51.076;7.950;2023-02-15T05:28:43;17.38;;;5.97;;
55031;SDS011;40928;51.076;7.950;2023-02-15T05:31:10;18.25;;;7.43;;
55031;SDS011;40928;51.076;7.950;2023-02-15T05:33:39;14.23;;;6.65;;
55031;SDS011;40928;51.076;7.950;2023-02-15T05:36:05;15.95;;;6.28;;
55031;SDS011;40928;51.076;7.950;2023-02-15T05:38:32;21.02;;;7.35;;
55031;SDS011;40928;51.076;7.950;2023-02-15T05:40:58;17.10;;;6.25;;
55031;SDS011;40928;51.076;7.950;2023-02-15T05:43:24;18.60;;;6.97;;
55031;SDS011;40928;51.076;7.950;2023-02-15T05:45:51;16.40;;;6.90;;
55031;SDS011;40928;51.076;7.950;2023-02-15T05:48:17;21.23;;;7.80;;
55031;SDS011;40928;51.076;7.950;2023-02-15T05:50:44;13.18;;;6.13;;
55031;SDS011;40928;51.076;7.950;2023-02-15T05:53:10;17.08;;;7.10;;
55031;SDS011;40928;51.076;7.950;2023-02-15T05:55:39;17.15;;;7.18;;
55031;SDS011;40928;51.076;7.950;2023-02-15T05:58:06;13.82;;;6.78;;
55031;SDS011;40928;51.076;7.950;2023-02-15T06:00:33;19.48;;;7.10;;
55031;SDS011;40928;51.076;7.950;2023-02-15T06:02:59;16.67;;;6.53;;
55031;SDS011;40928;51.076;7.950;2023-02-15T06:05:24;17.38;;;8.38;;
55031;SDS011;40928;51.076;7.950;2023-02-15T06:07:50;20.48;;;7.22;;
55031;SDS011;40928;51.076;7.950;2023-02-15T06:10:15;15.57;;;7.00;;
55031;SDS011;40928;51.076;7.950;2023-02-15T06:12:41;19.33;;;7.95;;
55031;SDS011;40928;51.076;7.950;2023-02-15T06:15:07;16.13;;;7.38;;
55031;SDS011;40928;51.076;7.950;2023-02-15T06:17:33;14.32;;;6.80;;
55031;SDS011;40928;51.076;7.950;2023-02-15T06:19:58;19.30;;;7.88;;
55031;SDS011;40928;51.076;7.950;2023-02-15T06:22:23;12.02;;;6.20;;
55031;SDS011;40928;51.076;7.950;2023-02-15T06:24:49;17.73;;;6.85;;
55031;SDS011;40928;51.076;7.950;2023-02-15T06:27:14;16.88;;;7.82;;
55031;SDS011;40928;51.076;7.950;2023-02-15T06:29:40;16.55;;;7.57;;
55031;SDS011;40928;51.076;7.950;2023-02-15T06:32:05;16.77;;;7.20;;
55031;SDS011;40928;51.076;7.950;2023-02-15T06:34:31;16.98;;;7.65;;
55031;SDS011;40928;51.076;7.950;2023-02-15T06:36:57;19.10;;;8.05;;
55031;SDS011;40928;51.076;7.950;2023-02-15T06:39:22;17.15;;;6.72;;
55031;SDS011;40928;51.076;7.950;2023-02-15T06:41:48;15.32;;;6.40;;
55031;SDS011;40928;51.076;7.950;2023-02-15T06:44:13;19.90;;;7.88;;
55031;SDS011;40928;51.076;7.950;2023-02-15T06:46:39;21.50;;;8.35;;
55031;SDS011;40928;51.076;7.950;2023-02-15T06:49:04;15.13;;;6.80;;
55031;SDS011;40928;51.076;7.950;2023-02-15T06:51:30;19.83;;;8.38;;
55031;SDS011;40928;51.076;7.950;2023-02-15T06:53:55;19.10;;;8.10;;
55031;SDS011;40928;51.076;7.950;2023-02-15T06:56:21;16.00;;;7.55;;
55031;SDS011;40928;51.076;7.950;2023-02-15T06:58:46;21.58;;;7.68;;
55031;SDS011;40928;51.076;7.950;2023-02-15T07:01:14;19.13;;;7.75;;
55031;SDS011;40928;51.076;7.950;2023-02-15T07:03:40;19.00;;;8.90;;
55031;SDS011;40928;51.076;7.950;2023-02-15T07:06:06;16.80;;;8.52;;
55031;SDS011;40928;51.076;7.950;2023-02-15T07:08:33;26.33;;;9.60;;
55031;SDS011;40928;51.076;7.950;2023-02-15T07:11:03;19.92;;;8.27;;
55031;SDS011;40928;51.076;7.950;2023-02-15T07:13:47;24.52;;;8.27;;
55031;SDS011;40928;51.076;7.950;2023-02-15T07:16:13;14.18;;;6.82;;
55031;SDS011;40928;51.076;7.950;2023-02-15T07:18:39;21.90;;;8.07;;
55031;SDS011;40928;51.076;7.950;2023-02-15T07:21:05;18.92;;;8.88;;
55031;SDS011;40928;51.076;7.950;2023-02-15T07:23:36;22.17;;;9.23;;
55031;SDS011;40928;51.076;7.950;2023-02-15T07:26:02;21.05;;;9.93;;
55031;SDS011;40928;51.076;7.950;2023-02-15T07:28:29;23.05;;;9.43;;
55031;SDS011;40928;51.076;7.950;2023-02-15T07:30:57;22.17;;;10.32;;
55031;SDS011;40928;51.076;7.950;2023-02-15T07:33:23;27.02;;;10.43;;
55031;SDS011;40928;51.076;7.950;2023-02-15T07:35:49;28.45;;;10.27;;
55031;SDS011;40928;51.076;7.950;2023-02-15T07:38:16;19.35;;;9.27;;
55031;SDS011;40928;51.076;7.950;2023-02-15T07:40:42;18.90;;;8.35;;
55031;SDS011;40928;51.076;7.950;2023-02-15T07:43:08;25.83;;;10.80;;
55031;SDS011;40928;51.076;7.950;2023-02-15T07:45:34;23.15;;;11.38;;
55031;SDS011;40928;51.076;7.950;2023-02-15T07:48:00;32.90;;;15.85;;
55031;SDS011;40928;51.076;7.950;2023-02-15T07:50:26;48.53;;;24.40;;
55031;SDS011;40928;51.076;7.950;2023-02-15T07:52:52;63.28;;;28.65;;
55031;SDS011;40928;51.076;7.950;2023-02-15T07:55:17;43.78;;;20.13;;
55031;SDS011;40928;51.076;7.950;2023-02-15T07:57:44;35.58;;;16.45;;
55031;SDS011;40928;51.076;7.950;2023-02-15T08:00:11;35.13;;;16.70;;
55031;SDS011;40928;51.076;7.950;2023-02-15T08:02:42;51.50;;;19.15;;
55031;SDS011;40928;51.076;7.950;2023-02-15T08:05:07;42.45;;;18.67;;
55031;SDS011;40928;51.076;7.950;2023-02-15T08:07:33;49.53;;;19.00;;
55031;SDS011;40928;51.076;7.950;2023-02-15T08:09:58;34.55;;;16.00;;
55031;SDS011;40928;51.076;7.950;2023-02-15T08:12:26;41.28;;;18.48;;
55031;SDS011;40928;51.076;7.950;2023-02-15T08:14:52;43.20;;;18.73;;
55031;SDS011;40928;51.076;7.950;2023-02-15T08:17:18;41.03;;;18.42;;
55031;SDS011;40928;51.076;7.950;2023-02-15T08:19:43;36.72;;;16.73;;
55031;SDS011;40928;51.076;7.950;2023-02-15T08:22:10;37.53;;;16.48;;
55031;SDS011;40928;51.076;7.950;2023-02-15T08:24:38;34.05;;;16.33;;
55031;SDS011;40928;51.076;7.950;2023-02-15T08:27:09;45.35;;;16.67;;
55031;SDS011;40928;51.076;7.950;2023-02-15T08:29:36;37.88;;;15.18;;
55031;SDS011;40928;51.076;7.950;2023-02-15T08:32:04;31.58;;;14.43;;
55031;SDS011;40928;51.076;7.950;2023-02-15T08:34:33;28.13;;;13.73;;
55031;SDS011;40928;51.076;7.950;2023-02-15T08:37:00;32.88;;;13.13;;
55031;SDS011;40928;51.076;7.950;2023-02-15T08:39:26;23.80;;;11.70;;
55031;SDS011;40928;51.076;7.950;2023-02-15T08:41:51;24.38;;;11.75;;
55031;SDS011;40928;51.076;7.950;2023-02-15T08:44:18;26.15;;;11.85;;
55031;SDS011;40928;51.076;7.950;2023-02-15T08:46:45;22.75;;;10.38;;
55031;SDS011;40928;51.076;7.950;2023-02-15T08:49:12;23.85;;;10.75;;
55031;SDS011;40928;51.076;7.950;2023-02-15T08:51:40;23.23;;;10.35;;
55031;SDS011;40928;51.076;7.950;2023-02-15T08:54:11;25.80;;;12.02;;
55031;SDS011;40928;51.076;7.950;2023-02-15T08:56:39;23.90;;;10.82;;
55031;SDS011;40928;51.076;7.950;2023-02-15T08:59:06;27.52;;;10.80;;
55031;SDS011;40928;51.076;7.950;2023-02-15T09:01:33;22.85;;;10.40;;
55031;SDS011;40928;51.076;7.950;2023-02-15T09:04:04;23.60;;;11.25;;
55031;SDS011;40928;51.076;7.950;2023-02-15T09:06:33;29.95;;;9.60;;
55031;SDS011;40928;51.076;7.950;2023-02-15T09:08:59;23.58;;;11.95;;
55031;SDS011;40928;51.076;7.950;2023-02-15T09:11:26;36.30;;;14.75;;
55031;SDS011;40928;51.076;7.950;2023-02-15T09:16:22;35.65;;;14.15;;
55031;SDS011;40928;51.076;7.950;2023-02-15T09:18:49;37.95;;;16.60;;
55031;SDS011;40928;51.076;7.950;2023-02-15T09:21:16;40.28;;;17.35;;
55031;SDS011;40928;51.076;7.950;2023-02-15T09:23:44;29.52;;;13.07;;
55031;SDS011;40928;51.076;7.950;2023-02-15T09:26:12;29.00;;;13.88;;
55031;SDS011;40928;51.076;7.950;2023-02-15T09:28:40;22.52;;;11.02;;
55031;SDS011;40928;51.076;7.950;2023-02-15T09:31:06;18.40;;;9.25;;
55031;SDS011;40928;51.076;7.950;2023-02-15T09:33:34;17.27;;;8.95;;
55031;SDS011;40928;51.076;7.950;2023-02-15T09:36:01;24.60;;;11.65;;
55031;SDS011;40928;51.076;7.950;2023-02-15T09:38:27;22.45;;;10.82;;
55031;SDS011;40928;51.076;7.950;2023-02-15T09:41:07;20.08;;;11.02;;
55031;SDS011;40928;51.076;7.950;2023-02-15T09:43:42;18.80;;;10.20;;
55031;SDS011;40928;51.076;7.950;2023-02-15T09:46:20;22.73;;;10.73;;
55031;SDS011;40928;51.076;7.950;2023-02-15T09:49:09;19.63;;;10.15;;
55031;SDS011;40928;51.076;7.950;2023-02-15T09:57:08;20.40;;;9.93;;
55031;SDS011;40928;51.076;7.950;2023-02-15T10:03:02;18.73;;;9.23;;
55031;SDS011;40928;51.076;7.950;2023-02-15T10:21:46;9.88;;;4.90;;
55031;SDS011;40928;51.076;7.950;2023-02-15T10:27:24;11.32;;;5.07;;
55031;SDS011;40928;51.076;7.950;2023-02-15T10:32:24;9.45;;;4.18;;
55031;SDS011;40928;51.076;7.950;2023-02-15T10:34:52;10.95;;;4.60;;
55031;SDS011;40928;51.076;7.950;2023-02-15T10:50:57;12.10;;;5.47;;
55031;SDS011;40928;51.076;7.950;2023-02-15T10:56:24;13.52;;;5.40;;
55031;SDS011;40928;51.076;7.950;2023-02-15T10:59:10;10.77;;;4.88;;
55031;SDS011;40928;51.076;7.950;2023-02-15T11:07:14;11.98;;;5.22;;
55031;SDS011;40928;51.076;7.950;2023-02-15T11:09:52;9.50;;;4.85;;
55031;SDS011;40928;51.076;7.950;2023-02-15T11:12:26;11.15;;;5.45;;
55031;SDS011;40928;51.076;7.950;2023-02-15T11:14:58;10.45;;;5.53;;
55031;SDS011;40928;51.076;7.950;2023-02-15T11:17:38;10.82;;;5.40;;
55031;SDS011;40928;51.076;7.950;2023-02-15T11:20:12;8.00;;;4.57;;
55031;SDS011;40928;51.076;7.950;2023-02-15T11:22:47;8.05;;;4.57;;
55031;SDS011;40928;51.076;7.950;2023-02-15T11:25:19;8.80;;;4.80;;
55031;SDS011;40928;51.076;7.950;2023-02-15T11:27:48;9.77;;;4.95;;
55031;SDS011;40928;51.076;7.950;2023-02-15T11:30:22;9.88;;;4.95;;
55031;SDS011;40928;51.076;7.950;2023-02-15T11:32:53;9.10;;;5.18;;
55031;SDS011;40928;51.076;7.950;2023-02-15T11:35:25;8.63;;;4.95;;
55031;SDS011;40928;51.076;7.950;2023-02-15T11:38:14;8.98;;;4.85;;
55031;SDS011;40928;51.076;7.950;2023-02-15T11:40:46;10.43;;;5.05;;
55031;SDS011;40928;51.076;7.950;2023-02-15T11:43:16;10.10;;;5.28;;
55031;SDS011;40928;51.076;7.950;2023-02-15T11:45:48;8.52;;;4.97;;
55031;SDS011;40928;51.076;7.950;2023-02-15T11:48:14;9.68;;;5.10;;
55031;SDS011;40928;51.076;7.950;2023-02-15T11:50:41;8.77;;;4.70;;
55031;SDS011;40928;51.076;7.950;2023-02-15T11:53:20;17.17;;;4.57;;
55031;SDS011;40928;51.076;7.950;2023-02-15T11:55:52;9.43;;;5.10;;
55031;SDS011;40928;51.076;7.950;2023-02-15T12:01:13;10.07;;;5.32;;
55031;SDS011;40928;51.076;7.950;2023-02-15T12:03:47;8.60;;;4.85;;
55031;SDS011;40928;51.076;7.950;2023-02-15T12:06:26;10.60;;;4.82;;
55031;SDS011;40928;51.076;7.950;2023-02-15T12:09:02;10.70;;;5.05;;
55031;SDS011;40928;51.076;7.950;2023-02-15T12:11:40;17.77;;;5.72;;
55031;SDS011;40928;51.076;7.950;2023-02-15T12:14:07;9.13;;;5.10;;
55031;SDS011;40928;51.076;7.950;2023-02-15T12:16:40;10.88;;;5.00;;
55031;SDS011;40928;51.076;7.950;2023-02-15T12:19:13;10.90;;;5.03;;
55031;SDS011;40928;51.076;7.950;2023-02-15T12:21:43;9.23;;;4.78;;
55031;SDS011;40928;51.076;7.950;2023-02-15T12:24:18;8.07;;;4.47;;
55031;SDS011;40928;51.076;7.950;2023-02-15T12:26:55;8.85;;;4.95;;
55031;SDS011;40928;51.076;7.950;2023-02-15T12:29:42;9.98;;;5.47;;
55031;SDS011;40928;51.076;7.950;2023-02-15T12:32:18;10.30;;;5.13;;
55031;SDS011;40928;51.076;7.950;2023-02-15T12:34:47;10.65;;;5.70;;
55031;SDS011;40928;51.076;7.950;2023-02-15T12:37:19;9.82;;;4.97;;
55031;SDS011;40928;51.076;7.950;2023-02-15T12:39:58;9.20;;;5.32;;
55031;SDS011;40928;51.076;7.950;2023-02-15T12:42:25;8.63;;;4.60;;
55031;SDS011;40928;51.076;7.950;2023-02-15T12:44:53;11.93;;;5.07;;
55031;SDS011;40928;51.076;7.950;2023-02-15T12:47:19;8.00;;;4.75;;
55031;SDS011;40928;51.076;7.950;2023-02-15T12:52:51;8.50;;;4.82;;
55031;SDS011;40928;51.076;7.950;2023-02-15T12:55:49;10.38;;;5.20;;
55031;SDS011;40928;51.076;7.950;2023-02-15T12:58:24;8.68;;;4.97;;
55031;SDS011;40928;51.076;7.950;2023-02-15T13:03:58;9.93;;;5.78;;
55031;SDS011;40928;51.076;7.950;2023-02-15T13:06:25;8.05;;;5.43;;
55031;SDS011;40928;51.076;7.950;2023-02-15T13:08:53;7.00;;;4.75;;
55031;SDS011;40928;51.076;7.950;2023-02-15T13:11:26;7.72;;;4.95;;
55031;SDS011;40928;51.076;7.950;2023-02-15T13:14:00;8.50;;;5.18;;
55031;SDS011;40928;51.076;7.950;2023-02-15T13:16:31;11.57;;;5.90;;
55031;SDS011;40928;51.076;7.950;2023-02-15T13:19:08;10.15;;;5.50;;
55031;SDS011;40928;51.076;7.950;2023-02-15T13:21:39;8.57;;;5.25;;
55031;SDS011;40928;51.076;7.950;2023-02-15T13:26:44;10.93;;;5.53;;
55031;SDS011;40928;51.076;7.950;2023-02-15T13:29:16;11.30;;;5.03;;
55031;SDS011;40928;51.076;7.950;2023-02-15T13:31:46;8.88;;;5.05;;
55031;SDS011;40928;51.076;7.950;2023-02-15T13:34:28;10.40;;;5.53;;
55031;SDS011;40928;51.076;7.950;2023-02-15T13:53:09;10.45;;;4.47;;
55031;SDS011;40928;51.076;7.950;2023-02-15T14:01:18;8.48;;;4.80;;
55031;SDS011;40928;51.076;7.950;2023-02-15T14:31:43;9.23;;;5.28;;
55031;SDS011;40928;51.076;7.950;2023-02-15T14:34:22;9.93;;;4.90;;
55031;SDS011;40928;51.076;7.950;2023-02-15T14:36:52;10.02;;;5.68;;
55031;SDS011;40928;51.076;7.950;2023-02-15T14:39:36;9.80;;;4.70;;
55031;SDS011;40928;51.076;7.950;2023-02-15T14:42:34;10.27;;;5.50;;
55031;SDS011;40928;51.076;7.950;2023-02-15T14:45:17;9.70;;;5.20;;
55031;SDS011;40928;51.076;7.950;2023-02-15T14:50:46;8.65;;;4.60;;
55031;SDS011;40928;51.076;7.950;2023-02-15T14:58:34;12.20;;;5.72;;
55031;SDS011;40928;51.076;7.950;2023-02-15T15:01:04;12.68;;;5.07;;
55031;SDS011;40928;51.076;7.950;2023-02-15T15:03:35;10.05;;;5.55;;
55031;SDS011;40928;51.076;7.950;2023-02-15T15:06:20;9.75;;;4.80;;
55031;SDS011;40928;51.076;7.950;2023-02-15T15:08:51;15.27;;;5.25;;
55031;SDS011;40928;51.076;7.950;2023-02-15T15:13:55;10.65;;;5.32;;
55031;SDS011;40928;51.076;7.950;2023-02-15T15:19:04;10.15;;;5.43;;
55031;SDS011;40928;51.076;7.950;2023-02-15T15:52:36;12.65;;;5.47;;
55031;SDS011;40928;51.076;7.950;2023-02-15T15:55:07;9.73;;;5.95;;
55031;SDS011;40928;51.076;7.950;2023-02-15T15:57:43;17.38;;;5.43;;
55031;SDS011;40928;51.076;7.950;2023-02-15T16:02:54;13.65;;;5.95;;
55031;SDS011;40928;51.076;7.950;2023-02-15T16:05:22;15.73;;;6.47;;
55031;SDS011;40928;51.076;7.950;2023-02-15T16:07:48;11.07;;;5.75;;
55031;SDS011;40928;51.076;7.950;2023-02-15T16:10:27;10.13;;;5.68;;
55031;SDS011;40928;51.076;7.950;2023-02-15T16:12:57;14.77;;;6.75;;
55031;SDS011;40928;51.076;7.950;2023-02-15T16:15:29;13.65;;;6.97;;
55031;SDS011;40928;51.076;7.950;2023-02-15T16:18:00;17.17;;;6.70;;
55031;SDS011;40928;51.076;7.950;2023-02-15T16:20:32;11.70;;;6.28;;
55031;SDS011;40928;51.076;7.950;2023-02-15T16:25:59;12.10;;;6.13;;
55031;SDS011;40928;51.076;7.950;2023-02-15T16:28:33;13.68;;;6.07;;
55031;SDS011;40928;51.076;7.950;2023-02-15T16:31:21;15.88;;;7.53;;
55031;SDS011;40928;51.076;7.950;2023-02-15T16:33:47;14.45;;;6.75;;
55031;SDS011;40928;51.076;7.950;2023-02-15T16:36:24;14.63;;;6.90;;
55031;SDS011;40928;51.076;7.950;2023-02-15T16:43:47;13.93;;;7.43;;
55031;SDS011;40928;51.076;7.950;2023-02-15T16:46:30;13.02;;;5.95;;
55031;SDS011;40928;51.076;7.950;2023-02-15T16:48:59;16.25;;;6.88;;
55031;SDS011;40928;51.076;7.950;2023-02-15T16:51:28;13.63;;;6.13;;
55031;SDS011;40928;51.076;7.950;2023-02-15T16:53:55;13.68;;;6.13;;
55031;SDS011;40928;51.076;7.950;2023-02-15T16:56:25;17.10;;;7.15;;
55031;SDS011;40928;51.076;7.950;2023-02-15T16:58:55;15.80;;;6.88;;
55031;SDS011;40928;51.076;7.950;2023-02-15T17:01:23;14.00;;;6.60;;
55031;SDS011;40928;51.076;7.950;2023-02-15T17:04:09;13.05;;;6.78;;
55031;SDS011;40928;51.076;7.950;2023-02-15T17:09:40;17.40;;;7.75;;
55031;SDS011;40928;51.076;7.950;2023-02-15T17:12:35;14.30;;;6.85;;
55031;SDS011;40928;51.076;7.950;2023-02-15T17:15:32;15.05;;;6.70;;
55031;SDS011;40928;51.076;7.950;2023-02-15T17:18:01;14.80;;;7.53;;
55031;SDS011;40928;51.076;7.950;2023-02-15T17:20:47;11.90;;;6.47;;
55031;SDS011;40928;51.076;7.950;2023-02-15T17:23:29;14.23;;;6.80;;
55031;SDS011;40928;51.076;7.950;2023-02-15T17:25:57;12.05;;;6.13;;
55031;SDS011;40928;51.076;7.950;2023-02-15T17:28:26;18.05;;;8.40;;
55031;SDS011;40928;51.076;7.950;2023-02-15T17:30:54;14.32;;;7.70;;
55031;SDS011;40928;51.076;7.950;2023-02-15T17:33:26;16.77;;;7.10;;
55031;SDS011;40928;51.076;7.950;2023-02-15T17:36:04;14.35;;;7.15;;
55031;SDS011;40928;51.076;7.950;2023-02-15T17:38:35;17.58;;;8.52;;
55031;SDS011;40928;51.076;7.950;2023-02-15T17:41:02;25.83;;;8.73;;
55031;SDS011;40928;51.076;7.950;2023-02-15T17:43:27;16.85;;;8.20;;
55031;SDS011;40928;51.076;7.950;2023-02-15T17:45:53;17.85;;;8.20;;
55031;SDS011;40928;51.076;7.950;2023-02-15T17:48:22;18.20;;;7.70;;
55031;SDS011;40928;51.076;7.950;2023-02-15T17:50:56;18.08;;;8.25;;
55031;SDS011;40928;51.076;7.950;2023-02-15T17:53:32;44.08;;;18.92;;
55031;SDS011;40928;51.076;7.950;2023-02-15T17:55:58;57.47;;;25.15;;
55031;SDS011;40928;51.076;7.950;2023-02-15T17:58:24;51.00;;;21.23;;
55031;SDS011;40928;51.076;7.950;2023-02-15T18:00:54;44.65;;;19.23;;
55031;SDS011;40928;51.076;7.950;2023-02-15T18:03:41;39.58;;;16.98;;
55031;SDS011;40928;51.076;7.950;2023-02-15T18:06:35;57.30;;;24.55;;
55031;SDS011;40928;51.076;7.950;2023-02-15T18:09:21;46.03;;;18.95;;
55031;SDS011;40928;51.076;7.950;2023-02-15T18:14:48;50.13;;;20.63;;
55031;SDS011;40928;51.076;7.950;2023-02-15T18:17:15;44.78;;;19.17;;
55031;SDS011;40928;51.076;7.950;2023-02-15T18:19:41;42.13;;;16.88;;
55031;SDS011;40928;51.076;7.950;2023-02-15T18:22:13;38.20;;;16.83;;
55031;SDS011;40928;51.076;7.950;2023-02-15T18:24:41;37.88;;;16.88;;